createdAt,value
2023-03-01T00:01:58.500Z,1.17
2023-03-01T00:05:00.121Z,2.80
2023-03-01T00:08:01.701Z,3.03
2023-03-01T00:11:04.915Z,1.92
2023-03-01T00:14:07.679Z,1.70
2023-03-01T00:17:12.053Z,1.92
2023-03-01T00:20:13.660Z,0.70
2023-03-01T00:23:15.238Z,2.28
2023-03-01T00:26:18.761Z,1.33
2023-03-01T00:29:20.479Z,2.05
2023-03-01T00:32:22.327Z,1.30
2023-03-01T00:35:24.166Z,1.45
2023-03-01T00:38:25.879Z,0.00
2023-03-01T00:41:27.723Z,3.90
2023-03-01T00:44:29.481Z,1.92
2023-03-01T00:47:31.104Z,0.10
2023-03-01T00:50:32.999Z,2.50
2023-03-01T00:53:34.805Z,1.65
2023-03-01T00:56:36.442Z,1.95
2023-03-01T00:59:38.500Z,1.58
2023-03-01T01:02:40.069Z,1.60
2023-03-01T01:05:41.690Z,2.28
2023-03-01T01:08:43.276Z,2.00
2023-03-01T01:11:49.124Z,1.73
2023-03-01T01:14:50.891Z,1.33
2023-03-01T01:17:52.473Z,1.90
2023-03-01T01:20:54.033Z,3.83
2023-03-01T01:23:55.988Z,2.63
2023-03-01T01:26:57.895Z,1.90
2023-03-01T01:29:59.472Z,3.15
2023-03-01T01:33:01.075Z,1.60
2023-03-01T01:36:02.865Z,1.60
2023-03-01T01:39:05.035Z,1.85
2023-03-01T01:42:06.724Z,1.50
2023-03-01T01:45:26.812Z,1.48
2023-03-01T01:48:41.265Z,0.00
2023-03-01T01:51:44.758Z,0.82
2023-03-01T01:54:58.815Z,3.10
2023-03-01T01:58:02.535Z,1.08
2023-03-01T02:01:04.324Z,3.63
2023-03-01T02:04:07.524Z,1.30
2023-03-01T02:07:16.629Z,0.00
2023-03-01T02:10:18.388Z,1.95
2023-03-01T02:13:19.904Z,1.30
2023-03-01T02:16:21.641Z,1.60
2023-03-01T02:19:32.007Z,2.58
2023-03-01T02:22:34.502Z,3.53
2023-03-01T02:25:42.239Z,1.65
2023-03-01T02:28:44.759Z,1.63
2023-03-01T02:31:46.405Z,1.55
2023-03-01T02:34:48.246Z,1.90
2023-03-01T02:37:50.179Z,2.33
2023-03-01T02:40:52.268Z,2.03
2023-03-01T02:43:54.022Z,1.77
2023-03-01T02:46:56.930Z,2.72
2023-03-01T02:50:00.226Z,1.63
2023-03-01T02:53:21.072Z,2.10
2023-03-01T02:56:22.761Z,1.83
2023-03-01T02:59:27.953Z,1.70
2023-03-01T03:02:39.752Z,0.85
2023-03-01T03:05:47.307Z,1.77
2023-03-01T03:08:48.904Z,3.47
2023-03-01T03:11:50.653Z,2.08
2023-03-01T03:14:52.211Z,0.70
2023-03-01T03:17:54.993Z,2.42
2023-03-01T03:20:59.274Z,1.73
2023-03-01T03:24:00.901Z,1.42
2023-03-01T03:27:02.486Z,3.92
2023-03-01T03:30:09.768Z,3.58
2023-03-01T03:33:13.609Z,1.55
2023-03-01T03:36:19.470Z,2.05
2023-03-01T03:39:21.321Z,1.88
2023-03-01T03:42:25.617Z,0.40
2023-03-01T03:45:27.290Z,1.85
2023-03-01T03:48:28.986Z,4.10
2023-03-01T03:51:30.522Z,3.40
2023-03-01T03:54:32.052Z,1.95
2023-03-01T03:57:33.666Z,0.17
2023-03-01T04:00:36.120Z,0.17
2023-03-01T04:03:37.706Z,0.40
2023-03-01T04:06:39.236Z,0.88
2023-03-01T04:09:40.994Z,1.65
2023-03-01T04:12:44.217Z,2.47
2023-03-01T04:15:45.817Z,1.48
2023-03-01T04:18:48.574Z,2.50
2023-03-01T04:21:50.333Z,3.50
2023-03-01T04:24:51.989Z,2.30
2023-03-01T04:27:53.584Z,3.05
2023-03-01T04:30:56.305Z,3.38
2023-03-01T04:33:57.973Z,3.22
2023-03-01T04:36:59.532Z,2.80
2023-03-01T04:40:01.294Z,2.17
2023-03-01T04:43:03.211Z,4.13
2023-03-01T04:46:07.268Z,2.45
2023-03-01T04:49:08.850Z,3.00
2023-03-01T04:52:10.402Z,1.80
2023-03-01T04:55:12.138Z,2.88
2023-03-01T04:58:13.705Z,3.45
2023-03-01T05:01:20.330Z,2.03
2023-03-01T05:04:22.167Z,2.15
2023-03-01T05:07:25.794Z,1.85
2023-03-01T05:10:30.128Z,3.55
2023-03-01T05:13:31.737Z,2.67
2023-03-01T05:16:36.075Z,3.13
2023-03-01T05:19:38.015Z,3.22
2023-03-01T05:22:39.827Z,3.13
2023-03-01T05:25:41.434Z,2.28
2023-03-01T05:28:43.505Z,3.90
2023-03-01T05:31:45.227Z,3.90
2023-03-01T05:34:47.551Z,4.03
2023-03-01T05:37:50.102Z,3.95
2023-03-01T05:40:51.740Z,3.97
2023-03-01T05:43:53.395Z,3.35
2023-03-01T05:46:55.532Z,1.65
2023-03-01T05:49:57.268Z,3.92
2023-03-01T05:53:00.164Z,3.85
2023-03-01T05:56:03.888Z,3.13
2023-03-01T05:59:08.787Z,0.70
2023-03-01T06:02:10.397Z,4.15
2023-03-01T06:05:13.251Z,4.65
2023-03-01T06:08:14.984Z,4.68
2023-03-01T06:11:16.794Z,2.10
2023-03-01T06:14:18.412Z,6.63
2023-03-01T06:17:21.958Z,0.40
2023-03-01T06:20:24.666Z,2.03
2023-03-01T06:23:26.477Z,1.75
2023-03-01T06:26:28.346Z,2.13
2023-03-01T06:29:30.438Z,6.47
2023-03-01T06:32:32.778Z,4.47
2023-03-01T06:35:34.653Z,4.88
2023-03-01T06:38:36.522Z,4.75
2023-03-01T06:41:38.178Z,3.15
2023-03-01T06:44:39.769Z,2.38
2023-03-01T06:47:41.442Z,4.75
2023-03-01T06:50:43.180Z,2.75
2023-03-01T06:53:46.595Z,4.20
2023-03-01T06:56:48.245Z,4.15
2023-03-01T06:59:49.891Z,1.98
2023-03-01T07:02:51.758Z,2.70
2023-03-01T07:05:53.634Z,5.30
2023-03-01T07:08:55.271Z,7.03
2023-03-01T07:11:57.160Z,4.00
2023-03-01T07:14:58.825Z,4.95
2023-03-01T07:18:00.475Z,4.07
2023-03-01T07:21:08.884Z,5.82
2023-03-01T07:24:10.758Z,5.10
2023-03-01T07:27:12.543Z,4.70
2023-03-01T07:30:14.196Z,6.03
2023-03-01T07:33:15.971Z,2.58
2023-03-01T07:36:17.917Z,3.22
2023-03-01T07:39:19.853Z,1.48
2023-03-01T07:42:21.559Z,6.68
2023-03-01T07:45:23.218Z,3.72
2023-03-01T07:48:24.867Z,6.35
2023-03-01T07:51:26.491Z,4.35
2023-03-01T07:54:28.133Z,4.63
2023-03-01T07:57:29.725Z,6.28
2023-03-01T08:00:31.410Z,4.70
2023-03-01T08:03:33.522Z,6.45
2023-03-01T08:06:35.822Z,5.80
2023-03-01T08:09:40.243Z,5.70
2023-03-01T08:12:41.889Z,6.40
2023-03-01T08:15:43.514Z,6.57
2023-03-01T08:18:45.317Z,3.45
2023-03-01T08:21:46.913Z,6.32
2023-03-01T08:24:48.756Z,1.02
2023-03-01T08:27:50.327Z,4.68
2023-03-01T08:30:51.973Z,0.17
2023-03-01T08:33:58.381Z,7.88
2023-03-01T08:36:59.977Z,7.68
2023-03-01T08:40:01.640Z,5.00
2023-03-01T08:43:03.416Z,6.03
2023-03-01T08:46:05.240Z,7.10
2023-03-01T08:49:17.564Z,8.30
2023-03-01T08:52:20.068Z,6.57
2023-03-01T08:55:21.744Z,8.52
2023-03-01T08:58:23.326Z,6.15
2023-03-01T09:01:24.974Z,7.55
2023-03-01T09:04:26.590Z,8.45
2023-03-01T09:07:29.280Z,6.05
2023-03-01T09:10:30.876Z,7.88
2023-03-01T09:13:32.744Z,1.33
2023-03-01T09:16:37.262Z,0.47
2023-03-01T09:19:39.230Z,6.10
2023-03-01T09:22:40.895Z,7.68
2023-03-01T09:25:42.545Z,7.95
2023-03-01T09:28:45.548Z,5.57
2023-03-01T09:31:47.272Z,6.00
2023-03-01T09:35:07.193Z,7.50
2023-03-01T09:38:08.896Z,10.02
2023-03-01T09:41:11.694Z,10.43
2023-03-01T09:44:19.220Z,6.90
2023-03-01T09:47:22.689Z,7.72
2023-03-01T09:50:25.041Z,8.90
2023-03-01T09:53:32.124Z,7.63
2023-03-01T09:56:48.923Z,9.73
2023-03-01T10:00:16.831Z,6.82
2023-03-01T10:03:18.639Z,1.98
2023-03-01T10:06:34.091Z,8.82
2023-03-01T10:09:38.000Z,7.70
2023-03-01T10:12:41.564Z,8.43
2023-03-01T10:15:49.818Z,10.02
2023-03-01T10:18:56.892Z,8.68
2023-03-01T10:22:01.716Z,8.95
2023-03-01T10:25:04.434Z,7.07
2023-03-01T10:28:26.532Z,6.45
2023-03-01T10:31:38.216Z,5.65
2023-03-01T10:34:40.025Z,7.65
2023-03-01T10:37:57.430Z,5.90
2023-03-01T10:41:08.879Z,6.63
2023-03-01T10:44:30.488Z,7.72
2023-03-01T10:47:32.087Z,8.00
2023-03-01T10:50:33.808Z,6.80
2023-03-01T10:53:48.927Z,8.93
2023-03-01T10:56:53.762Z,4.43
2023-03-01T11:00:02.662Z,8.00
2023-03-01T11:03:12.036Z,6.07
2023-03-01T11:06:13.602Z,5.82
2023-03-01T11:09:22.942Z,7.18
2023-03-01T11:12:25.159Z,7.15
2023-03-01T11:15:29.930Z,5.93
2023-03-01T11:18:46.212Z,6.63
2023-03-01T11:25:07.061Z,7.03
2023-03-01T11:28:14.814Z,6.20
2023-03-01T11:31:17.902Z,6.15
2023-03-01T11:34:29.226Z,7.95
2023-03-01T11:37:41.062Z,9.07
2023-03-01T11:40:47.997Z,7.85
2023-03-01T11:43:49.637Z,8.45
2023-03-01T11:47:09.950Z,6.85
2023-03-01T11:50:18.376Z,8.25
2023-03-01T11:53:35.140Z,7.18
2023-03-01T11:56:39.810Z,8.85
2023-03-01T11:59:41.445Z,4.28
2023-03-01T12:02:45.968Z,6.32
2023-03-01T12:05:53.784Z,8.52
2023-03-01T12:08:55.430Z,6.95
2023-03-01T12:12:06.306Z,6.03
2023-03-01T12:15:20.205Z,4.72
2023-03-01T12:18:40.577Z,5.70
2023-03-01T12:21:51.071Z,5.63
2023-03-01T12:25:17.191Z,4.93
2023-03-01T12:28:43.989Z,5.78
2023-03-01T12:31:54.788Z,6.13
2023-03-01T12:34:59.664Z,5.85
2023-03-01T12:38:10.051Z,4.80
2023-03-01T12:41:11.622Z,5.38
2023-03-01T12:44:22.022Z,6.35
2023-03-01T12:47:41.279Z,4.30
2023-03-01T12:50:48.510Z,5.22
2023-03-01T12:53:51.328Z,7.60
2023-03-01T12:56:54.126Z,7.50
2023-03-01T13:00:18.774Z,7.78
2023-03-01T13:03:38.891Z,7.63
2023-03-01T13:06:59.437Z,9.07
2023-03-01T13:10:07.609Z,6.60
2023-03-01T13:13:09.215Z,6.68
2023-03-01T13:16:40.483Z,6.63
2023-03-01T13:19:56.869Z,7.68
2023-03-01T13:23:21.782Z,6.93
2023-03-01T13:26:23.462Z,8.70
2023-03-01T13:29:28.134Z,7.43
2023-03-01T13:32:43.656Z,7.22
2023-03-01T13:35:46.555Z,7.18
2023-03-01T13:38:49.578Z,4.30
2023-03-01T13:41:52.756Z,5.82
2023-03-01T13:44:54.857Z,1.30
2023-03-01T13:48:02.422Z,6.03
2023-03-01T13:51:06.428Z,5.50
2023-03-01T13:54:12.544Z,5.97
2023-03-01T13:57:19.840Z,7.03
2023-03-01T14:00:35.488Z,5.95
2023-03-01T14:03:42.779Z,5.95
2023-03-01T14:06:44.547Z,6.20
2023-03-01T14:09:48.140Z,5.90
2023-03-01T14:12:53.546Z,5.20
2023-03-01T14:16:14.283Z,5.43
2023-03-01T14:19:27.703Z,5.03
2023-03-01T14:22:37.847Z,3.53
2023-03-01T14:25:39.915Z,2.63
2023-03-01T14:28:43.536Z,3.72
2023-03-01T14:31:53.064Z,3.90
2023-03-01T14:34:56.253Z,2.15
2023-03-01T14:37:57.988Z,3.10
2023-03-01T14:41:06.743Z,3.40
2023-03-01T14:44:13.449Z,3.10
2023-03-01T14:47:26.430Z,3.80
2023-03-01T14:50:29.576Z,3.63
2023-03-01T14:53:37.638Z,3.30
2023-03-01T14:56:46.138Z,3.22
2023-03-01T14:59:48.852Z,4.07
2023-03-01T15:02:52.454Z,3.90
2023-03-01T15:05:54.687Z,3.85
2023-03-01T15:08:57.957Z,4.35
2023-03-01T15:11:59.597Z,4.60
2023-03-01T15:15:04.318Z,3.80
2023-03-01T15:18:14.488Z,4.93
2023-03-01T15:21:17.411Z,4.78
2023-03-01T15:24:23.886Z,5.07
2023-03-01T15:27:26.592Z,5.20
2023-03-01T15:30:30.032Z,3.70
2023-03-01T15:33:33.773Z,4.88
2023-03-01T15:36:38.225Z,4.97
2023-03-01T15:39:44.475Z,6.32
2023-03-01T15:42:46.204Z,5.75
2023-03-01T15:45:57.013Z,5.68
2023-03-01T15:49:03.972Z,6.55
2023-03-01T15:52:06.801Z,5.53
2023-03-01T15:55:31.867Z,6.65
2023-03-01T15:58:33.512Z,6.30
2023-03-01T16:01:36.011Z,5.88
2023-03-01T16:04:37.713Z,5.47
2023-03-01T16:07:40.901Z,5.82
2023-03-01T16:10:44.742Z,6.32
2023-03-01T16:13:47.081Z,5.75
2023-03-01T16:16:52.054Z,5.82
2023-03-01T16:19:53.717Z,6.10
2023-03-01T16:22:55.504Z,6.60
2023-03-01T16:25:59.831Z,5.85
2023-03-01T16:29:01.512Z,6.35
2023-03-01T16:32:03.629Z,6.45
2023-03-01T16:35:05.924Z,6.03
2023-03-01T16:38:07.579Z,5.75
2023-03-01T16:41:13.142Z,6.78
2023-03-01T16:44:15.509Z,7.18
2023-03-01T16:47:17.218Z,7.30
2023-03-01T16:50:19.203Z,7.28
2023-03-01T16:53:20.930Z,7.25
2023-03-01T16:56:22.661Z,8.35
2023-03-01T16:59:24.319Z,8.80
2023-03-01T17:02:26.062Z,9.38
2023-03-01T17:05:28.057Z,10.85
2023-03-01T17:08:29.654Z,11.82
2023-03-01T17:11:31.522Z,9.85
2023-03-01T17:14:33.309Z,12.80
2023-03-01T17:17:35.755Z,10.15
2023-03-01T17:20:37.603Z,8.82
2023-03-01T17:23:40.576Z,7.40
2023-03-01T17:26:42.234Z,6.70
2023-03-01T17:29:43.969Z,7.53
2023-03-01T17:32:45.769Z,7.38
2023-03-01T17:35:48.019Z,7.13
2023-03-01T17:38:50.300Z,7.95
2023-03-01T17:41:52.451Z,8.35
2023-03-01T17:44:55.229Z,8.35
2023-03-01T17:47:57.041Z,8.02
2023-03-01T17:50:58.790Z,8.02
2023-03-01T17:54:00.418Z,6.95
2023-03-01T17:57:02.072Z,6.35
2023-03-01T18:00:04.484Z,5.65
2023-03-01T18:03:13.200Z,7.45
2023-03-01T18:06:19.633Z,7.20
2023-03-01T18:09:22.312Z,6.25
2023-03-01T18:12:24.097Z,6.35
2023-03-01T18:15:25.812Z,5.93
2023-03-01T18:18:28.162Z,8.27
2023-03-01T18:21:30.430Z,6.30
2023-03-01T18:24:32.762Z,5.40
2023-03-01T18:27:34.552Z,6.88
2023-03-01T18:30:36.165Z,4.25
2023-03-01T18:33:38.422Z,5.03
2023-03-01T18:36:41.614Z,6.13
2023-03-01T18:39:46.057Z,7.70
2023-03-01T18:42:47.862Z,6.88
2023-03-01T18:45:55.696Z,8.15
2023-03-01T18:48:57.314Z,10.93
2023-03-01T18:51:58.913Z,6.57
2023-03-01T18:55:00.550Z,6.03
2023-03-01T18:58:02.416Z,7.30
2023-03-01T19:01:07.911Z,8.00
2023-03-01T19:04:11.023Z,4.47
2023-03-01T19:07:12.877Z,6.82
2023-03-01T19:10:14.493Z,6.15
2023-03-01T19:13:16.340Z,6.07
2023-03-01T19:16:19.214Z,7.32
2023-03-01T19:19:21.113Z,6.28
2023-03-01T19:22:22.999Z,7.30
2023-03-01T19:25:24.799Z,7.53
2023-03-01T19:28:26.405Z,7.35
2023-03-01T19:31:29.746Z,6.13
2023-03-01T19:34:32.352Z,6.90
2023-03-01T19:37:35.014Z,7.63
2023-03-01T19:40:36.776Z,7.07
2023-03-01T19:43:38.460Z,9.10
2023-03-01T19:46:40.166Z,7.50
2023-03-01T19:49:42.908Z,7.85
2023-03-01T19:52:47.643Z,8.10
2023-03-01T19:55:52.666Z,7.15
2023-03-01T19:59:00.398Z,5.25
2023-03-01T20:02:02.141Z,6.45
2023-03-01T20:05:03.776Z,5.93
2023-03-01T20:08:05.566Z,7.47
2023-03-01T20:11:08.751Z,6.70
2023-03-01T20:14:12.281Z,6.47
2023-03-01T20:17:13.876Z,7.53
2023-03-01T20:20:15.851Z,5.70
2023-03-01T20:23:18.265Z,6.60
2023-03-01T20:26:20.655Z,7.03
2023-03-01T20:29:22.595Z,4.85
2023-03-01T20:32:24.262Z,6.85
2023-03-01T20:35:26.108Z,5.53
2023-03-01T20:38:27.795Z,6.63
2023-03-01T20:41:29.512Z,5.10
2023-03-01T20:44:31.100Z,5.68
2023-03-01T20:47:32.764Z,3.95
2023-03-01T20:50:34.415Z,5.03
2023-03-01T20:53:36.069Z,5.93
2023-03-01T20:56:38.009Z,4.00
2023-03-01T20:59:39.768Z,1.80
2023-03-01T21:02:41.598Z,5.15
2023-03-01T21:05:43.220Z,5.90
2023-03-01T21:08:44.890Z,4.70
2023-03-01T21:11:48.966Z,6.28
2023-03-01T21:14:50.566Z,3.30
2023-03-01T21:17:52.211Z,5.30
2023-03-01T21:20:53.840Z,6.35
2023-03-01T21:23:59.770Z,5.65
2023-03-01T21:27:06.572Z,6.53
2023-03-01T21:30:08.441Z,6.60
2023-03-01T21:33:10.261Z,5.95
2023-03-01T21:36:11.968Z,6.82
2023-03-01T21:39:14.843Z,6.60
2023-03-01T21:42:16.542Z,6.82
2023-03-01T21:45:18.311Z,6.60
2023-03-01T21:48:20.174Z,7.15
2023-03-01T21:51:24.595Z,4.65
2023-03-01T21:54:26.345Z,7.88
2023-03-01T21:57:27.940Z,7.00
2023-03-01T22:00:29.703Z,6.35
2023-03-01T22:03:31.415Z,6.47
2023-03-01T22:06:40.925Z,7.32
2023-03-01T22:09:42.842Z,6.90
2023-03-01T22:12:44.491Z,6.65
2023-03-01T22:15:46.139Z,5.75
2023-03-01T22:18:47.899Z,7.35
2023-03-01T22:21:50.852Z,6.50
2023-03-01T22:24:52.686Z,5.25
2023-03-01T22:27:54.351Z,6.90
2023-03-01T22:30:56.110Z,6.10
2023-03-01T22:33:58.453Z,6.68
2023-03-01T22:37:00.134Z,5.40
2023-03-01T22:40:01.881Z,6.75
2023-03-01T22:43:03.645Z,6.40
2023-03-01T22:46:12.771Z,7.55
2023-03-01T22:49:14.958Z,7.82
2023-03-01T22:52:16.520Z,5.32
2023-03-01T22:55:18.426Z,6.97
2023-03-01T22:58:20.141Z,6.85
2023-03-01T23:01:22.976Z,4.47
2023-03-01T23:04:24.785Z,7.65
2023-03-01T23:07:26.415Z,6.63
2023-03-01T23:10:28.084Z,5.55
2023-03-01T23:13:29.903Z,5.95
2023-03-01T23:16:31.934Z,5.47
2023-03-01T23:19:34.017Z,6.90
2023-03-01T23:22:36.158Z,4.20
2023-03-01T23:25:37.875Z,5.43
2023-03-01T23:28:42.223Z,6.35
2023-03-01T23:31:43.890Z,5.78
2023-03-01T23:34:45.539Z,3.70
2023-03-01T23:37:47.346Z,7.07
2023-03-01T23:40:49.105Z,6.55
2023-03-01T23:43:52.784Z,5.90
2023-03-01T23:46:54.442Z,7.05
2023-03-01T23:49:57.372Z,7.10
2023-03-01T23:52:59.012Z,6.35
2023-03-01T23:56:00.715Z,7.35
2023-03-01T23:59:03.728Z,8.75
